sensor_id;sensor_type;location;lat;lon;timestamp;P1;durP1;ratioP1;P2;durP2;ratioP2
15871;SDS011;8035;51.962;7.162;2023-04-25T00:02:03;11.17;;;4.40;;
15871;SDS011;8035;51.962;7.162;2023-04-25T00:04:29;5.80;;;3.73;;
15871;SDS011;8035;51.962;7.162;2023-04-25T00:06:55;9.30;;;4.50;;
15871;SDS011;8035;51.962;7.162;2023-04-25T00:09:22;9.07;;;4.70;;
15871;SDS011;8035;51.962;7.162;2023-04-25T00:11:48;9.33;;;4.47;;
15871;SDS011;8035;51.962;7.162;2023-04-25T00:14:14;9.43;;;4.13;;
15871;SDS011;8035;51.962;7.162;2023-04-25T00:16:41;11.57;;;4.43;;
15871;SDS011;8035;51.962;7.162;2023-04-25T00:19:08;7.47;;;4.00;;
15871;SDS011;8035;51.962;7.162;2023-04-25T00:21:34;8.57;;;4.13;;
15871;SDS011;8035;51.962;7.162;2023-04-25T00:24:02;7.93;;;3.77;;
15871;SDS011;8035;51.962;7.162;2023-04-25T00:26:28;5.73;;;3.47;;
15871;SDS011;8035;51.962;7.162;2023-04-25T00:28:54;7.17;;;4.20;;
15871;SDS011;8035;51.962;7.162;2023-04-25T00:31:20;7.63;;;3.93;;
15871;SDS011;8035;51.962;7.162;2023-04-25T00:33:47;8.00;;;3.60;;
15871;SDS011;8035;51.962;7.162;2023-04-25T00:36:13;4.87;;;3.27;;
15871;SDS011;8035;51.962;7.162;2023-04-25T00:38:39;4.70;;;3.50;;
15871;SDS011;8035;51.962;7.162;2023-04-25T00:41:06;8.23;;;4.10;;
15871;SDS011;8035;51.962;7.162;2023-04-25T00:43:32;6.37;;;3.43;;
15871;SDS011;8035;51.962;7.162;2023-04-25T00:45:58;5.17;;;3.17;;
15871;SDS011;8035;51.962;7.162;2023-04-25T00:48:25;5.03;;;3.27;;
15871;SDS011;8035;51.962;7.162;2023-04-25T00:50:52;8.60;;;3.53;;
15871;SDS011;8035;51.962;7.162;2023-04-25T00:53:22;3.97;;;3.10;;
15871;SDS011;8035;51.962;7.162;2023-04-25T00:55:48;5.43;;;3.33;;
15871;SDS011;8035;51.962;7.162;2023-04-25T00:58:15;7.53;;;3.27;;
15871;SDS011;8035;51.962;7.162;2023-04-25T01:00:41;6.27;;;3.17;;
15871;SDS011;8035;51.962;7.162;2023-04-25T01:03:08;5.00;;;3.17;;
15871;SDS011;8035;51.962;7.162;2023-04-25T01:05:35;8.80;;;4.17;;
15871;SDS011;8035;51.962;7.162;2023-04-25T01:08:01;11.60;;;3.73;;
15871;SDS011;8035;51.962;7.162;2023-04-25T01:10:27;8.20;;;3.67;;
15871;SDS011;8035;51.962;7.162;2023-04-25T01:12:53;8.17;;;3.83;;
15871;SDS011;8035;51.962;7.162;2023-04-25T01:15:19;7.70;;;4.33;;
15871;SDS011;8035;51.962;7.162;2023-04-25T01:17:45;8.97;;;3.90;;
15871;SDS011;8035;51.962;7.162;2023-04-25T01:20:12;11.30;;;5.27;;
15871;SDS011;8035;51.962;7.162;2023-04-25T01:22:40;10.83;;;3.70;;
15871;SDS011;8035;51.962;7.162;2023-04-25T01:25:06;11.20;;;4.20;;
15871;SDS011;8035;51.962;7.162;2023-04-25T01:27:32;13.33;;;4.50;;
15871;SDS011;8035;51.962;7.162;2023-04-25T01:29:58;14.30;;;4.70;;
15871;SDS011;8035;51.962;7.162;2023-04-25T01:32:25;14.40;;;4.87;;
15871;SDS011;8035;51.962;7.162;2023-04-25T01:34:51;11.27;;;3.60;;
15871;SDS011;8035;51.962;7.162;2023-04-25T01:37:17;16.63;;;4.50;;
15871;SDS011;8035;51.962;7.162;2023-04-25T01:39:43;19.83;;;4.93;;
15871;SDS011;8035;51.962;7.162;2023-04-25T01:42:09;13.97;;;4.30;;
15871;SDS011;8035;51.962;7.162;2023-04-25T01:44:35;15.33;;;4.53;;
15871;SDS011;8035;51.962;7.162;2023-04-25T01:47:00;12.93;;;4.27;;
15871;SDS011;8035;51.962;7.162;2023-04-25T01:49:26;10.27;;;3.97;;
15871;SDS011;8035;51.962;7.162;2023-04-25T01:51:52;10.57;;;3.77;;
15871;SDS011;8035;51.962;7.162;2023-04-25T01:54:17;11.07;;;4.23;;
15871;SDS011;8035;51.962;7.162;2023-04-25T01:56:49;10.77;;;4.20;;
15871;SDS011;8035;51.962;7.162;2023-04-25T01:59:15;11.13;;;4.23;;
15871;SDS011;8035;51.962;7.162;2023-04-25T02:01:40;12.90;;;4.80;;
15871;SDS011;8035;51.962;7.162;2023-04-25T02:04:06;11.70;;;4.27;;
15871;SDS011;8035;51.962;7.162;2023-04-25T02:06:31;15.27;;;4.30;;
15871;SDS011;8035;51.962;7.162;2023-04-25T02:08:57;11.57;;;5.10;;
15871;SDS011;8035;51.962;7.162;2023-04-25T02:11:23;13.90;;;4.37;;
15871;SDS011;8035;51.962;7.162;2023-04-25T02:13:49;12.97;;;4.30;;
15871;SDS011;8035;51.962;7.162;2023-04-25T02:16:15;13.27;;;4.30;;
15871;SDS011;8035;51.962;7.162;2023-04-25T02:18:41;11.00;;;4.13;;
15871;SDS011;8035;51.962;7.162;2023-04-25T02:21:07;12.57;;;5.03;;
15871;SDS011;8035;51.962;7.162;2023-04-25T02:23:33;11.67;;;4.87;;
15871;SDS011;8035;51.962;7.162;2023-04-25T02:25:59;8.40;;;3.87;;
15871;SDS011;8035;51.962;7.162;2023-04-25T02:28:25;15.10;;;4.67;;
15871;SDS011;8035;51.962;7.162;2023-04-25T02:30:51;12.13;;;4.70;;
15871;SDS011;8035;51.962;7.162;2023-04-25T02:33:17;10.10;;;4.83;;
15871;SDS011;8035;51.962;7.162;2023-04-25T02:35:43;12.13;;;4.13;;
15871;SDS011;8035;51.962;7.162;2023-04-25T02:38:09;14.67;;;5.27;;
15871;SDS011;8035;51.962;7.162;2023-04-25T02:40:35;13.53;;;4.67;;
15871;SDS011;8035;51.962;7.162;2023-04-25T02:43:01;21.83;;;4.90;;
15871;SDS011;8035;51.962;7.162;2023-04-25T02:45:27;13.13;;;4.40;;
15871;SDS011;8035;51.962;7.162;2023-04-25T02:47:53;14.23;;;4.30;;
15871;SDS011;8035;51.962;7.162;2023-04-25T02:50:19;9.60;;;3.90;;
15871;SDS011;8035;51.962;7.162;2023-04-25T02:52:45;13.30;;;4.47;;
15871;SDS011;8035;51.962;7.162;2023-04-25T02:55:12;11.97;;;4.40;;
15871;SDS011;8035;51.962;7.162;2023-04-25T02:57:38;10.97;;;4.37;;
15871;SDS011;8035;51.962;7.162;2023-04-25T03:00:04;15.23;;;3.87;;
15871;SDS011;8035;51.962;7.162;2023-04-25T03:02:30;13.23;;;4.60;;
15871;SDS011;8035;51.962;7.162;2023-04-25T03:04:56;14.03;;;4.93;;
15871;SDS011;8035;51.962;7.162;2023-04-25T03:07:23;11.63;;;4.50;;
15871;SDS011;8035;51.962;7.162;2023-04-25T03:09:49;14.17;;;4.80;;
15871;SDS011;8035;51.962;7.162;2023-04-25T03:12:15;12.47;;;4.87;;
15871;SDS011;8035;51.962;7.162;2023-04-25T03:14:41;13.50;;;3.60;;
15871;SDS011;8035;51.962;7.162;2023-04-25T03:17:07;12.80;;;4.50;;
15871;SDS011;8035;51.962;7.162;2023-04-25T03:19:33;14.17;;;4.20;;
15871;SDS011;8035;51.962;7.162;2023-04-25T03:21:59;18.30;;;4.83;;
15871;SDS011;8035;51.962;7.162;2023-04-25T03:24:25;15.03;;;4.63;;
15871;SDS011;8035;51.962;7.162;2023-04-25T03:26:52;12.03;;;4.23;;
15871;SDS011;8035;51.962;7.162;2023-04-25T03:29:18;18.90;;;4.90;;
15871;SDS011;8035;51.962;7.162;2023-04-25T03:31:43;21.27;;;4.90;;
15871;SDS011;8035;51.962;7.162;2023-04-25T03:34:10;13.70;;;4.40;;
15871;SDS011;8035;51.962;7.162;2023-04-25T03:36:36;16.17;;;4.17;;
15871;SDS011;8035;51.962;7.162;2023-04-25T03:39:02;11.23;;;3.57;;
15871;SDS011;8035;51.962;7.162;2023-04-25T03:41:28;14.23;;;4.43;;
15871;SDS011;8035;51.962;7.162;2023-04-25T03:43:54;11.97;;;4.47;;
15871;SDS011;8035;51.962;7.162;2023-04-25T03:46:20;15.20;;;4.33;;
15871;SDS011;8035;51.962;7.162;2023-04-25T03:48:46;14.53;;;4.27;;
15871;SDS011;8035;51.962;7.162;2023-04-25T03:51:12;11.93;;;4.13;;
15871;SDS011;8035;51.962;7.162;2023-04-25T03:53:38;9.23;;;3.30;;
15871;SDS011;8035;51.962;7.162;2023-04-25T03:56:04;14.57;;;4.27;;
15871;SDS011;8035;51.962;7.162;2023-04-25T03:58:30;14.10;;;3.70;;
15871;SDS011;8035;51.962;7.162;2023-04-25T04:00:56;10.57;;;3.80;;
15871;SDS011;8035;51.962;7.162;2023-04-25T04:03:22;16.63;;;4.00;;
15871;SDS011;8035;51.962;7.162;2023-04-25T04:05:48;13.53;;;4.67;;
15871;SDS011;8035;51.962;7.162;2023-04-25T04:08:15;13.50;;;3.83;;
15871;SDS011;8035;51.962;7.162;2023-04-25T04:10:41;9.67;;;3.80;;
15871;SDS011;8035;51.962;7.162;2023-04-25T04:13:07;11.13;;;4.07;;
15871;SDS011;8035;51.962;7.162;2023-04-25T04:15:33;11.63;;;3.80;;
15871;SDS011;8035;51.962;7.162;2023-04-25T04:17:59;11.70;;;3.97;;
15871;SDS011;8035;51.962;7.162;2023-04-25T04:20:27;9.13;;;3.60;;
15871;SDS011;8035;51.962;7.162;2023-04-25T04:22:54;14.17;;;4.33;;
15871;SDS011;8035;51.962;7.162;2023-04-25T04:25:20;9.67;;;3.77;;
15871;SDS011;8035;51.962;7.162;2023-04-25T04:27:46;11.97;;;4.20;;
15871;SDS011;8035;51.962;7.162;2023-04-25T04:30:13;8.57;;;3.43;;
15871;SDS011;8035;51.962;7.162;2023-04-25T04:32:39;9.93;;;4.00;;
15871;SDS011;8035;51.962;7.162;2023-04-25T04:35:05;12.13;;;3.90;;
15871;SDS011;8035;51.962;7.162;2023-04-25T04:37:31;14.07;;;4.17;;
15871;SDS011;8035;51.962;7.162;2023-04-25T04:39:57;9.33;;;4.10;;
15871;SDS011;8035;51.962;7.162;2023-04-25T04:42:23;14.63;;;5.67;;
15871;SDS011;8035;51.962;7.162;2023-04-25T04:44:50;16.20;;;4.50;;
15871;SDS011;8035;51.962;7.162;2023-04-25T04:47:17;11.20;;;3.77;;
15871;SDS011;8035;51.962;7.162;2023-04-25T04:49:45;8.87;;;3.63;;
15871;SDS011;8035;51.962;7.162;2023-04-25T04:52:11;14.10;;;4.87;;
15871;SDS011;8035;51.962;7.162;2023-04-25T04:54:37;8.77;;;3.93;;
15871;SDS011;8035;51.962;7.162;2023-04-25T04:57:03;10.17;;;3.73;;
15871;SDS011;8035;51.962;7.162;2023-04-25T04:59:29;11.00;;;3.63;;
15871;SDS011;8035;51.962;7.162;2023-04-25T05:01:55;11.30;;;3.33;;
15871;SDS011;8035;51.962;7.162;2023-04-25T05:04:20;11.07;;;3.90;;
15871;SDS011;8035;51.962;7.162;2023-04-25T05:06:46;11.05;;;4.00;;
15871;SDS011;8035;51.962;7.162;2023-04-25T05:09:12;10.83;;;3.77;;
15871;SDS011;8035;51.962;7.162;2023-04-25T05:11:38;7.93;;;3.57;;
15871;SDS011;8035;51.962;7.162;2023-04-25T05:14:04;8.57;;;3.33;;
15871;SDS011;8035;51.962;7.162;2023-04-25T05:16:30;8.33;;;3.53;;
15871;SDS011;8035;51.962;7.162;2023-04-25T05:18:56;8.00;;;3.57;;
15871;SDS011;8035;51.962;7.162;2023-04-25T05:21:22;8.73;;;4.07;;
15871;SDS011;8035;51.962;7.162;2023-04-25T05:23:48;7.93;;;3.83;;
15871;SDS011;8035;51.962;7.162;2023-04-25T05:26:14;8.60;;;3.90;;
15871;SDS011;8035;51.962;7.162;2023-04-25T05:28:40;10.43;;;3.83;;
15871;SDS011;8035;51.962;7.162;2023-04-25T05:31:07;8.67;;;3.67;;
15871;SDS011;8035;51.962;7.162;2023-04-25T05:33:33;11.23;;;4.00;;
15871;SDS011;8035;51.962;7.162;2023-04-25T05:35:59;10.47;;;4.20;;
15871;SDS011;8035;51.962;7.162;2023-04-25T05:38:25;12.73;;;4.40;;
15871;SDS011;8035;51.962;7.162;2023-04-25T05:40:51;8.53;;;3.63;;
15871;SDS011;8035;51.962;7.162;2023-04-25T05:43:17;11.30;;;4.27;;
15871;SDS011;8035;51.962;7.162;2023-04-25T05:45:43;14.53;;;4.17;;
15871;SDS011;8035;51.962;7.162;2023-04-25T05:48:09;16.07;;;4.23;;
15871;SDS011;8035;51.962;7.162;2023-04-25T05:50:35;7.37;;;3.43;;
15871;SDS011;8035;51.962;7.162;2023-04-25T05:53:01;10.03;;;3.57;;
15871;SDS011;8035;51.962;7.162;2023-04-25T05:55:27;9.93;;;4.67;;
15871;SDS011;8035;51.962;7.162;2023-04-25T05:57:53;11.37;;;4.10;;
15871;SDS011;8035;51.962;7.162;2023-04-25T06:00:19;10.07;;;3.97;;
15871;SDS011;8035;51.962;7.162;2023-04-25T06:02:47;9.23;;;3.93;;
15871;SDS011;8035;51.962;7.162;2023-04-25T06:05:13;12.60;;;4.03;;
15871;SDS011;8035;51.962;7.162;2023-04-25T06:07:39;12.70;;;4.00;;
15871;SDS011;8035;51.962;7.162;2023-04-25T06:10:05;11.03;;;3.70;;
15871;SDS011;8035;51.962;7.162;2023-04-25T06:12:34;9.53;;;4.47;;
15871;SDS011;8035;51.962;7.162;2023-04-25T06:15:00;9.33;;;3.97;;
15871;SDS011;8035;51.962;7.162;2023-04-25T06:17:26;13.70;;;4.47;;
15871;SDS011;8035;51.962;7.162;2023-04-25T06:19:52;10.87;;;3.77;;
15871;SDS011;8035;51.962;7.162;2023-04-25T06:22:18;11.17;;;4.40;;
15871;SDS011;8035;51.962;7.162;2023-04-25T06:24:44;6.77;;;4.00;;
15871;SDS011;8035;51.962;7.162;2023-04-25T06:27:10;14.80;;;4.33;;
15871;SDS011;8035;51.962;7.162;2023-04-25T06:29:36;10.80;;;4.30;;
15871;SDS011;8035;51.962;7.162;2023-04-25T06:32:02;10.20;;;3.73;;
15871;SDS011;8035;51.962;7.162;2023-04-25T06:34:28;9.43;;;3.80;;
15871;SDS011;8035;51.962;7.162;2023-04-25T06:36:54;8.53;;;3.70;;
15871;SDS011;8035;51.962;7.162;2023-04-25T06:39:20;9.63;;;4.03;;
15871;SDS011;8035;51.962;7.162;2023-04-25T06:41:48;8.23;;;3.57;;
15871;SDS011;8035;51.962;7.162;2023-04-25T06:44:14;11.80;;;4.50;;
15871;SDS011;8035;51.962;7.162;2023-04-25T06:46:40;6.13;;;2.93;;
15871;SDS011;8035;51.962;7.162;2023-04-25T06:49:06;14.57;;;4.00;;
15871;SDS011;8035;51.962;7.162;2023-04-25T06:51:32;10.63;;;3.57;;
15871;SDS011;8035;51.962;7.162;2023-04-25T06:53:58;10.30;;;3.80;;
15871;SDS011;8035;51.962;7.162;2023-04-25T06:56:24;5.60;;;3.10;;
15871;SDS011;8035;51.962;7.162;2023-04-25T06:58:50;13.50;;;3.83;;
15871;SDS011;8035;51.962;7.162;2023-04-25T07:01:16;13.37;;;3.57;;
15871;SDS011;8035;51.962;7.162;2023-04-25T07:03:42;10.50;;;3.37;;
15871;SDS011;8035;51.962;7.162;2023-04-25T07:06:08;5.97;;;3.13;;
15871;SDS011;8035;51.962;7.162;2023-04-25T07:08:34;5.87;;;3.30;;
15871;SDS011;8035;51.962;7.162;2023-04-25T07:11:00;10.80;;;3.10;;
15871;SDS011;8035;51.962;7.162;2023-04-25T07:13:26;8.33;;;3.13;;
15871;SDS011;8035;51.962;7.162;2023-04-25T07:15:52;12.60;;;3.90;;
15871;SDS011;8035;51.962;7.162;2023-04-25T07:18:18;11.60;;;2.80;;
15871;SDS011;8035;51.962;7.162;2023-04-25T07:20:44;9.27;;;3.13;;
15871;SDS011;8035;51.962;7.162;2023-04-25T07:23:10;8.90;;;2.57;;
15871;SDS011;8035;51.962;7.162;2023-04-25T07:25:35;7.30;;;2.50;;
15871;SDS011;8035;51.962;7.162;2023-04-25T07:28:01;9.67;;;2.90;;
15871;SDS011;8035;51.962;7.162;2023-04-25T07:30:27;8.73;;;2.57;;
15871;SDS011;8035;51.962;7.162;2023-04-25T07:32:53;6.63;;;2.47;;
15871;SDS011;8035;51.962;7.162;2023-04-25T07:35:18;8.00;;;2.70;;
15871;SDS011;8035;51.962;7.162;2023-04-25T07:37:44;7.87;;;3.23;;
15871;SDS011;8035;51.962;7.162;2023-04-25T07:40:09;6.07;;;2.70;;
15871;SDS011;8035;51.962;7.162;2023-04-25T07:42:35;9.47;;;2.63;;
15871;SDS011;8035;51.962;7.162;2023-04-25T07:45:01;9.27;;;2.30;;
15871;SDS011;8035;51.962;7.162;2023-04-25T07:47:28;5.37;;;2.07;;
15871;SDS011;8035;51.962;7.162;2023-04-25T07:49:53;7.70;;;2.37;;
15871;SDS011;8035;51.962;7.162;2023-04-25T07:52:19;7.73;;;2.43;;
15871;SDS011;8035;51.962;7.162;2023-04-25T07:54:44;9.60;;;2.93;;
15871;SDS011;8035;51.962;7.162;2023-04-25T07:57:10;7.57;;;2.07;;
15871;SDS011;8035;51.962;7.162;2023-04-25T07:59:38;6.30;;;2.30;;
15871;SDS011;8035;51.962;7.162;2023-04-25T08:02:05;7.50;;;2.20;;
15871;SDS011;8035;51.962;7.162;2023-04-25T08:04:31;11.90;;;2.63;;
15871;SDS011;8035;51.962;7.162;2023-04-25T08:06:56;10.73;;;2.80;;
15871;SDS011;8035;51.962;7.162;2023-04-25T08:09:22;9.73;;;2.40;;
15871;SDS011;8035;51.962;7.162;2023-04-25T08:11:47;7.33;;;2.30;;
15871;SDS011;8035;51.962;7.162;2023-04-25T08:14:13;5.43;;;2.00;;
15871;SDS011;8035;51.962;7.162;2023-04-25T08:16:39;11.50;;;2.97;;
15871;SDS011;8035;51.962;7.162;2023-04-25T08:19:04;6.13;;;2.10;;
15871;SDS011;8035;51.962;7.162;2023-04-25T08:21:30;6.60;;;2.10;;
15871;SDS011;8035;51.962;7.162;2023-04-25T08:23:56;6.30;;;2.27;;
15871;SDS011;8035;51.962;7.162;2023-04-25T08:26:23;7.50;;;2.00;;
15871;SDS011;8035;51.962;7.162;2023-04-25T08:28:49;8.70;;;2.57;;
15871;SDS011;8035;51.962;7.162;2023-04-25T08:31:15;6.40;;;1.90;;
15871;SDS011;8035;51.962;7.162;2023-04-25T08:33:41;5.77;;;2.10;;
15871;SDS011;8035;51.962;7.162;2023-04-25T08:36:06;5.37;;;1.90;;
15871;SDS011;8035;51.962;7.162;2023-04-25T08:38:32;7.03;;;2.33;;
15871;SDS011;8035;51.962;7.162;2023-04-25T08:40:58;9.20;;;2.27;;
15871;SDS011;8035;51.962;7.162;2023-04-25T08:43:26;6.07;;;2.23;;
15871;SDS011;8035;51.962;7.162;2023-04-25T08:45:53;4.50;;;1.83;;
15871;SDS011;8035;51.962;7.162;2023-04-25T08:48:22;6.17;;;2.10;;
15871;SDS011;8035;51.962;7.162;2023-04-25T08:50:54;3.87;;;1.70;;
15871;SDS011;8035;51.962;7.162;2023-04-25T08:53:22;4.90;;;2.57;;
15871;SDS011;8035;51.962;7.162;2023-04-25T08:55:50;6.40;;;2.23;;
15871;SDS011;8035;51.962;7.162;2023-04-25T08:58:19;4.83;;;1.93;;
15871;SDS011;8035;51.962;7.162;2023-04-25T09:00:46;9.07;;;1.97;;
15871;SDS011;8035;51.962;7.162;2023-04-25T09:03:12;4.00;;;2.00;;
15871;SDS011;8035;51.962;7.162;2023-04-25T09:05:39;5.57;;;1.90;;
15871;SDS011;8035;51.962;7.162;2023-04-25T09:08:05;6.57;;;1.80;;
15871;SDS011;8035;51.962;7.162;2023-04-25T09:10:31;3.87;;;2.13;;
15871;SDS011;8035;51.962;7.162;2023-04-25T09:13:06;7.90;;;2.30;;
15871;SDS011;8035;51.962;7.162;2023-04-25T09:18:13;4.77;;;1.80;;
15871;SDS011;8035;51.962;7.162;2023-04-25T09:20:42;4.50;;;1.70;;
15871;SDS011;8035;51.962;7.162;2023-04-25T09:23:09;7.93;;;1.80;;
15871;SDS011;8035;51.962;7.162;2023-04-25T09:25:35;6.63;;;2.00;;
15871;SDS011;8035;51.962;7.162;2023-04-25T09:28:04;5.97;;;1.70;;
15871;SDS011;8035;51.962;7.162;2023-04-25T09:30:31;6.27;;;1.67;;
15871;SDS011;8035;51.962;7.162;2023-04-25T09:33:03;6.20;;;2.07;;
15871;SDS011;8035;51.962;7.162;2023-04-25T09:35:29;3.80;;;1.90;;
15871;SDS011;8035;51.962;7.162;2023-04-25T09:38:00;4.07;;;2.00;;
15871;SDS011;8035;51.962;7.162;2023-04-25T09:40:26;4.73;;;1.60;;
15871;SDS011;8035;51.962;7.162;2023-04-25T09:42:52;5.47;;;1.63;;
15871;SDS011;8035;51.962;7.162;2023-04-25T09:45:18;5.40;;;1.60;;
15871;SDS011;8035;51.962;7.162;2023-04-25T09:47:44;3.20;;;1.67;;
15871;SDS011;8035;51.962;7.162;2023-04-25T09:50:14;4.53;;;1.63;;
15871;SDS011;8035;51.962;7.162;2023-04-25T09:52:40;4.47;;;1.37;;
15871;SDS011;8035;51.962;7.162;2023-04-25T09:55:07;5.07;;;1.50;;
15871;SDS011;8035;51.962;7.162;2023-04-25T09:57:33;2.97;;;1.70;;
15871;SDS011;8035;51.962;7.162;2023-04-25T09:59:59;3.90;;;1.43;;
15871;SDS011;8035;51.962;7.162;2023-04-25T10:02:29;5.07;;;1.57;;
15871;SDS011;8035;51.962;7.162;2023-04-25T10:04:55;5.03;;;1.60;;
15871;SDS011;8035;51.962;7.162;2023-04-25T10:07:25;3.70;;;1.40;;
15871;SDS011;8035;51.962;7.162;2023-04-25T10:10:02;5.70;;;1.97;;
15871;SDS011;8035;51.962;7.162;2023-04-25T10:12:29;6.50;;;1.83;;
15871;SDS011;8035;51.962;7.162;2023-04-25T10:14:58;6.30;;;1.93;;
15871;SDS011;8035;51.962;7.162;2023-04-25T10:17:26;7.23;;;1.80;;
15871;SDS011;8035;51.962;7.162;2023-04-25T10:19:52;4.90;;;1.77;;
15871;SDS011;8035;51.962;7.162;2023-04-25T10:24:48;3.97;;;1.33;;
15871;SDS011;8035;51.962;7.162;2023-04-25T10:27:15;6.97;;;1.80;;
15871;SDS011;8035;51.962;7.162;2023-04-25T10:29:41;5.67;;;1.53;;
15871;SDS011;8035;51.962;7.162;2023-04-25T10:32:10;8.50;;;1.90;;
15871;SDS011;8035;51.962;7.162;2023-04-25T10:34:40;4.03;;;1.90;;
15871;SDS011;8035;51.962;7.162;2023-04-25T10:37:08;4.33;;;1.70;;
15871;SDS011;8035;51.962;7.162;2023-04-25T10:39:34;3.10;;;1.40;;
15871;SDS011;8035;51.962;7.162;2023-04-25T10:42:01;4.10;;;1.47;;
15871;SDS011;8035;51.962;7.162;2023-04-25T10:44:28;5.47;;;1.83;;
15871;SDS011;8035;51.962;7.162;2023-04-25T10:46:55;7.97;;;1.87;;
15871;SDS011;8035;51.962;7.162;2023-04-25T10:49:34;6.27;;;2.03;;
15871;SDS011;8035;51.962;7.162;2023-04-25T10:52:13;3.03;;;1.40;;
15871;SDS011;8035;51.962;7.162;2023-04-25T10:59:57;2.43;;;1.50;;
15871;SDS011;8035;51.962;7.162;2023-04-25T11:02:24;4.13;;;1.63;;
15871;SDS011;8035;51.962;7.162;2023-04-25T11:04:52;3.77;;;1.70;;
15871;SDS011;8035;51.962;7.162;2023-04-25T11:07:33;3.37;;;1.70;;
15871;SDS011;8035;51.962;7.162;2023-04-25T11:10:01;3.40;;;1.43;;
15871;SDS011;8035;51.962;7.162;2023-04-25T11:12:29;3.90;;;1.37;;
15871;SDS011;8035;51.962;7.162;2023-04-25T11:14:59;4.67;;;1.67;;
15871;SDS011;8035;51.962;7.162;2023-04-25T11:17:30;2.27;;;1.43;;
15871;SDS011;8035;51.962;7.162;2023-04-25T11:19:55;4.67;;;1.60;;
15871;SDS011;8035;51.962;7.162;2023-04-25T11:22:22;4.63;;;1.80;;
15871;SDS011;8035;51.962;7.162;2023-04-25T11:24:48;3.73;;;1.67;;
15871;SDS011;8035;51.962;7.162;2023-04-25T11:27:14;6.43;;;1.93;;
15871;SDS011;8035;51.962;7.162;2023-04-25T11:29:40;5.93;;;1.70;;
15871;SDS011;8035;51.962;7.162;2023-04-25T11:32:06;4.03;;;2.33;;
15871;SDS011;8035;51.962;7.162;2023-04-25T11:34:32;5.97;;;3.47;;
15871;SDS011;8035;51.962;7.162;2023-04-25T11:36:59;4.97;;;2.00;;
15871;SDS011;8035;51.962;7.162;2023-04-25T11:39:28;5.83;;;1.50;;
15871;SDS011;8035;51.962;7.162;2023-04-25T11:41:54;3.50;;;1.27;;
15871;SDS011;8035;51.962;7.162;2023-04-25T11:44:20;4.53;;;1.50;;
15871;SDS011;8035;51.962;7.162;2023-04-25T11:46:46;3.13;;;1.40;;
15871;SDS011;8035;51.962;7.162;2023-04-25T11:49:12;2.83;;;1.30;;
15871;SDS011;8035;51.962;7.162;2023-04-25T11:51:39;8.50;;;1.80;;
15871;SDS011;8035;51.962;7.162;2023-04-25T11:54:05;5.57;;;1.43;;
15871;SDS011;8035;51.962;7.162;2023-04-25T11:56:31;6.47;;;1.40;;
15871;SDS011;8035;51.962;7.162;2023-04-25T11:59:01;6.73;;;1.30;;
15871;SDS011;8035;51.962;7.162;2023-04-25T12:01:28;2.57;;;1.20;;
15871;SDS011;8035;51.962;7.162;2023-04-25T12:03:55;2.13;;;1.47;;
15871;SDS011;8035;51.962;7.162;2023-04-25T12:06:21;3.03;;;1.23;;
15871;SDS011;8035;51.962;7.162;2023-04-25T12:09:03;5.07;;;1.40;;
15871;SDS011;8035;51.962;7.162;2023-04-25T12:11:30;1.77;;;0.93;;
15871;SDS011;8035;51.962;7.162;2023-04-25T12:14:01;3.13;;;1.47;;
15871;SDS011;8035;51.962;7.162;2023-04-25T12:16:27;2.33;;;1.27;;
15871;SDS011;8035;51.962;7.162;2023-04-25T12:18:53;3.13;;;1.50;;
15871;SDS011;8035;51.962;7.162;2023-04-25T12:21:20;2.93;;;1.30;;
15871;SDS011;8035;51.962;7.162;2023-04-25T12:23:45;2.33;;;1.33;;
15871;SDS011;8035;51.962;7.162;2023-04-25T12:26:11;4.73;;;1.33;;
15871;SDS011;8035;51.962;7.162;2023-04-25T12:28:37;5.13;;;1.60;;
15871;SDS011;8035;51.962;7.162;2023-04-25T12:31:04;5.13;;;2.00;;
15871;SDS011;8035;51.962;7.162;2023-04-25T12:33:31;4.43;;;1.47;;
15871;SDS011;8035;51.962;7.162;2023-04-25T12:35:57;2.70;;;1.30;;
15871;SDS011;8035;51.962;7.162;2023-04-25T12:40:50;3.30;;;1.40;;
15871;SDS011;8035;51.962;7.162;2023-04-25T12:43:16;2.23;;;1.40;;
15871;SDS011;8035;51.962;7.162;2023-04-25T12:45:48;4.40;;;1.57;;
15871;SDS011;8035;51.962;7.162;2023-04-25T12:48:15;2.10;;;1.13;;
15871;SDS011;8035;51.962;7.162;2023-04-25T12:50:42;3.80;;;1.40;;
15871;SDS011;8035;51.962;7.162;2023-04-25T12:53:08;2.93;;;1.13;;
15871;SDS011;8035;51.962;7.162;2023-04-25T12:55:34;2.47;;;1.03;;
15871;SDS011;8035;51.962;7.162;2023-04-25T12:58:00;3.37;;;1.20;;
15871;SDS011;8035;51.962;7.162;2023-04-25T13:00:26;3.83;;;1.80;;
15871;SDS011;8035;51.962;7.162;2023-04-25T13:02:52;5.87;;;2.00;;
15871;SDS011;8035;51.962;7.162;2023-04-25T13:05:18;4.03;;;1.97;;
15871;SDS011;8035;51.962;7.162;2023-04-25T13:07:44;2.63;;;1.63;;
15871;SDS011;8035;51.962;7.162;2023-04-25T13:10:10;3.53;;;1.40;;
15871;SDS011;8035;51.962;7.162;2023-04-25T13:12:36;2.87;;;1.30;;
15871;SDS011;8035;51.962;7.162;2023-04-25T13:15:02;4.67;;;1.60;;
15871;SDS011;8035;51.962;7.162;2023-04-25T13:17:28;5.80;;;2.00;;
15871;SDS011;8035;51.962;7.162;2023-04-25T13:19:54;14.77;;;8.00;;
15871;SDS011;8035;51.962;7.162;2023-04-25T13:22:20;2.97;;;2.30;;
15871;SDS011;8035;51.962;7.162;2023-04-25T13:24:46;4.47;;;2.13;;
15871;SDS011;8035;51.962;7.162;2023-04-25T13:27:13;4.03;;;1.80;;
15871;SDS011;8035;51.962;7.162;2023-04-25T13:29:39;4.40;;;1.50;;
15871;SDS011;8035;51.962;7.162;2023-04-25T13:32:05;4.10;;;1.47;;
15871;SDS011;8035;51.962;7.162;2023-04-25T13:34:31;5.50;;;1.93;;
15871;SDS011;8035;51.962;7.162;2023-04-25T13:36:57;3.07;;;1.37;;
15871;SDS011;8035;51.962;7.162;2023-04-25T13:39:23;2.23;;;1.10;;
15871;SDS011;8035;51.962;7.162;2023-04-25T13:41:49;2.60;;;1.40;;
15871;SDS011;8035;51.962;7.162;2023-04-25T13:44:14;2.30;;;1.00;;
15871;SDS011;8035;51.962;7.162;2023-04-25T13:46:40;2.70;;;1.30;;
15871;SDS011;8035;51.962;7.162;2023-04-25T13:49:06;3.30;;;1.30;;
15871;SDS011;8035;51.962;7.162;2023-04-25T13:51:32;1.97;;;1.10;;
15871;SDS011;8035;51.962;7.162;2023-04-25T13:53:58;2.13;;;1.10;;
15871;SDS011;8035;51.962;7.162;2023-04-25T13:56:24;1.67;;;1.23;;
15871;SDS011;8035;51.962;7.162;2023-04-25T13:58:50;2.03;;;0.90;;
15871;SDS011;8035;51.962;7.162;2023-04-25T14:01:16;4.93;;;1.27;;
15871;SDS011;8035;51.962;7.162;2023-04-25T14:03:43;4.37;;;1.20;;
15871;SDS011;8035;51.962;7.162;2023-04-25T14:06:09;3.50;;;1.43;;
15871;SDS011;8035;51.962;7.162;2023-04-25T14:08:36;2.43;;;1.30;;
15871;SDS011;8035;51.962;7.162;2023-04-25T14:11:02;1.43;;;1.00;;
15871;SDS011;8035;51.962;7.162;2023-04-25T14:13:28;5.43;;;1.50;;
15871;SDS011;8035;51.962;7.162;2023-04-25T14:15:54;4.43;;;1.40;;
15871;SDS011;8035;51.962;7.162;2023-04-25T14:18:20;2.57;;;1.57;;
15871;SDS011;8035;51.962;7.162;2023-04-25T14:20:46;2.33;;;1.10;;
15871;SDS011;8035;51.962;7.162;2023-04-25T14:23:12;3.83;;;1.57;;
15871;SDS011;8035;51.962;7.162;2023-04-25T14:25:38;4.00;;;1.37;;
15871;SDS011;8035;51.962;7.162;2023-04-25T14:28:05;4.43;;;1.40;;
15871;SDS011;8035;51.962;7.162;2023-04-25T14:30:31;3.70;;;1.50;;
15871;SDS011;8035;51.962;7.162;2023-04-25T14:32:57;2.10;;;1.33;;
15871;SDS011;8035;51.962;7.162;2023-04-25T14:35:23;4.67;;;1.70;;
15871;SDS011;8035;51.962;7.162;2023-04-25T14:37:49;4.23;;;1.40;;
15871;SDS011;8035;51.962;7.162;2023-04-25T14:40:15;2.53;;;1.40;;
15871;SDS011;8035;51.962;7.162;2023-04-25T14:42:42;2.63;;;1.30;;
15871;SDS011;8035;51.962;7.162;2023-04-25T14:45:08;4.73;;;1.23;;
15871;SDS011;8035;51.962;7.162;2023-04-25T14:47:34;1.70;;;1.20;;
15871;SDS011;8035;51.962;7.162;2023-04-25T14:50:00;2.47;;;1.00;;
15871;SDS011;8035;51.962;7.162;2023-04-25T14:52:27;3.07;;;1.40;;
15871;SDS011;8035;51.962;7.162;2023-04-25T14:54:53;3.33;;;1.30;;
15871;SDS011;8035;51.962;7.162;2023-04-25T14:57:19;4.67;;;1.57;;
15871;SDS011;8035;51.962;7.162;2023-04-25T14:59:45;3.93;;;1.43;;
15871;SDS011;8035;51.962;7.162;2023-04-25T15:02:11;3.27;;;1.20;;
15871;SDS011;8035;51.962;7.162;2023-04-25T15:04:37;4.33;;;1.40;;
15871;SDS011;8035;51.962;7.162;2023-04-25T15:07:03;3.97;;;1.43;;